sensor_id;sensor_type;location;lat;lon;timestamp;P1;durP1;ratioP1;P2;durP2;ratioP2
62574;SDS011;53112;45.602;11.904;2022-07-29T00:00:54;11.90;;;8.68;;
62574;SDS011;53112;45.602;11.904;2022-07-29T00:03:20;17.05;;;9.25;;
62574;SDS011;53112;45.602;11.904;2022-07-29T00:05:46;14.57;;;6.82;;
62574;SDS011;53112;45.602;11.904;2022-07-29T00:08:12;8.18;;;5.53;;
62574;SDS011;53112;45.602;11.904;2022-07-29T00:10:38;7.63;;;4.00;;
62574;SDS011;53112;45.602;11.904;2022-07-29T00:13:04;7.68;;;3.60;;
62574;SDS011;53112;45.602;11.904;2022-07-29T00:15:29;6.40;;;3.15;;
62574;SDS011;53112;45.602;11.904;2022-07-29T00:17:55;5.57;;;2.90;;
62574;SDS011;53112;45.602;11.904;2022-07-29T00:20:21;7.18;;;2.80;;
62574;SDS011;53112;45.602;11.904;2022-07-29T00:22:47;4.05;;;2.42;;
62574;SDS011;53112;45.602;11.904;2022-07-29T00:25:13;6.35;;;2.97;;
62574;SDS011;53112;45.602;11.904;2022-07-29T00:27:39;3.00;;;2.40;;
62574;SDS011;53112;45.602;11.904;2022-07-29T00:30:05;3.33;;;2.10;;
62574;SDS011;53112;45.602;11.904;2022-07-29T00:32:33;3.53;;;1.92;;
62574;SDS011;53112;45.602;11.904;2022-07-29T00:34:59;4.03;;;2.10;;
62574;SDS011;53112;45.602;11.904;2022-07-29T00:37:43;4.20;;;1.98;;
62574;SDS011;53112;45.602;11.904;2022-07-29T00:40:09;2.95;;;1.90;;
62574;SDS011;53112;45.602;11.904;2022-07-29T00:42:45;4.47;;;2.05;;
62574;SDS011;53112;45.602;11.904;2022-07-29T00:45:13;4.70;;;2.10;;
62574;SDS011;53112;45.602;11.904;2022-07-29T00:47:40;4.25;;;1.95;;
62574;SDS011;53112;45.602;11.904;2022-07-29T00:50:06;3.65;;;2.00;;
62574;SDS011;53112;45.602;11.904;2022-07-29T00:52:37;2.22;;;2.00;;
62574;SDS011;53112;45.602;11.904;2022-07-29T00:55:06;3.73;;;2.20;;
62574;SDS011;53112;45.602;11.904;2022-07-29T00:57:34;5.38;;;2.20;;
62574;SDS011;53112;45.602;11.904;2022-07-29T01:00:02;3.50;;;1.90;;
62574;SDS011;53112;45.602;11.904;2022-07-29T01:02:31;4.25;;;2.00;;
62574;SDS011;53112;45.602;11.904;2022-07-29T01:04:57;3.30;;;2.17;;
62574;SDS011;53112;45.602;11.904;2022-07-29T01:07:26;3.15;;;1.90;;
62574;SDS011;53112;45.602;11.904;2022-07-29T01:09:54;2.55;;;2.00;;
62574;SDS011;53112;45.602;11.904;2022-07-29T01:12:21;2.33;;;1.90;;
62574;SDS011;53112;45.602;11.904;2022-07-29T01:14:51;3.45;;;2.05;;
62574;SDS011;53112;45.602;11.904;2022-07-29T01:25:31;3.35;;;2.00;;
62574;SDS011;53112;45.602;11.904;2022-07-29T01:30:47;2.15;;;1.95;;
62574;SDS011;53112;45.602;11.904;2022-07-29T01:33:17;2.30;;;1.80;;
62574;SDS011;53112;45.602;11.904;2022-07-29T01:36:06;4.40;;;2.40;;
62574;SDS011;53112;45.602;11.904;2022-07-29T01:38:39;2.30;;;2.10;;
62574;SDS011;53112;45.602;11.904;2022-07-29T01:41:15;3.88;;;2.30;;
62574;SDS011;53112;45.602;11.904;2022-07-29T01:43:54;3.97;;;2.45;;
62574;SDS011;53112;45.602;11.904;2022-07-29T01:46:25;5.32;;;2.30;;
62574;SDS011;53112;45.602;11.904;2022-07-29T01:49:04;4.05;;;2.30;;
62574;SDS011;53112;45.602;11.904;2022-07-29T01:54:04;4.72;;;2.50;;
62574;SDS011;53112;45.602;11.904;2022-07-29T01:56:38;3.45;;;2.40;;
62574;SDS011;53112;45.602;11.904;2022-07-29T01:59:06;4.57;;;2.45;;
62574;SDS011;53112;45.602;11.904;2022-07-29T02:01:34;3.97;;;2.45;;
62574;SDS011;53112;45.602;11.904;2022-07-29T02:04:04;3.25;;;2.60;;
62574;SDS011;53112;45.602;11.904;2022-07-29T02:06:35;4.78;;;3.15;;
62574;SDS011;53112;45.602;11.904;2022-07-29T02:09:03;4.05;;;2.60;;
62574;SDS011;53112;45.602;11.904;2022-07-29T02:11:32;3.03;;;2.55;;
62574;SDS011;53112;45.602;11.904;2022-07-29T02:14:00;3.75;;;2.80;;
62574;SDS011;53112;45.602;11.904;2022-07-29T02:16:28;4.53;;;2.85;;
62574;SDS011;53112;45.602;11.904;2022-07-29T02:18:55;4.75;;;2.83;;
62574;SDS011;53112;45.602;11.904;2022-07-29T02:21:24;3.92;;;2.65;;
62574;SDS011;53112;45.602;11.904;2022-07-29T02:23:52;5.53;;;2.67;;
62574;SDS011;53112;45.602;11.904;2022-07-29T02:26:21;2.95;;;2.38;;
62574;SDS011;53112;45.602;11.904;2022-07-29T02:28:49;3.22;;;2.22;;
62574;SDS011;53112;45.602;11.904;2022-07-29T02:31:19;3.95;;;2.53;;
62574;SDS011;53112;45.602;11.904;2022-07-29T02:33:49;3.60;;;2.50;;
62574;SDS011;53112;45.602;11.904;2022-07-29T02:36:17;2.88;;;2.22;;
62574;SDS011;53112;45.602;11.904;2022-07-29T02:38:46;3.50;;;2.35;;
62574;SDS011;53112;45.602;11.904;2022-07-29T02:41:40;4.55;;;2.47;;
62574;SDS011;53112;45.602;11.904;2022-07-29T02:44:11;3.05;;;2.25;;
62574;SDS011;53112;45.602;11.904;2022-07-29T02:46:41;2.72;;;2.20;;
62574;SDS011;53112;45.602;11.904;2022-07-29T02:51:57;2.40;;;2.20;;
62574;SDS011;53112;45.602;11.904;2022-07-29T02:54:39;4.60;;;2.45;;
62574;SDS011;53112;45.602;11.904;2022-07-29T03:00:01;3.28;;;2.08;;
62574;SDS011;53112;45.602;11.904;2022-07-29T03:02:39;2.97;;;2.20;;
62574;SDS011;53112;45.602;11.904;2022-07-29T03:05:10;2.90;;;2.05;;
62574;SDS011;53112;45.602;11.904;2022-07-29T03:07:41;2.85;;;2.33;;
62574;SDS011;53112;45.602;11.904;2022-07-29T03:10:11;3.00;;;2.20;;
62574;SDS011;53112;45.602;11.904;2022-07-29T03:12:38;2.83;;;2.30;;
62574;SDS011;53112;45.602;11.904;2022-07-29T03:15:05;3.10;;;2.35;;
62574;SDS011;53112;45.602;11.904;2022-07-29T03:17:33;3.00;;;2.40;;
62574;SDS011;53112;45.602;11.904;2022-07-29T03:19:59;4.10;;;2.30;;
62574;SDS011;53112;45.602;11.904;2022-07-29T03:22:26;4.22;;;2.60;;
62574;SDS011;53112;45.602;11.904;2022-07-29T03:24:53;2.80;;;2.50;;
62574;SDS011;53112;45.602;11.904;2022-07-29T03:27:18;3.50;;;2.50;;
62574;SDS011;53112;45.602;11.904;2022-07-29T03:29:45;3.45;;;2.63;;
62574;SDS011;53112;45.602;11.904;2022-07-29T03:32:10;2.92;;;2.30;;
62574;SDS011;53112;45.602;11.904;2022-07-29T03:34:36;3.88;;;2.40;;
62574;SDS011;53112;45.602;11.904;2022-07-29T03:37:03;7.43;;;2.30;;
62574;SDS011;53112;45.602;11.904;2022-07-29T03:39:31;2.60;;;2.40;;
62574;SDS011;53112;45.602;11.904;2022-07-29T03:42:01;3.15;;;2.25;;
62574;SDS011;53112;45.602;11.904;2022-07-29T03:44:30;3.15;;;2.38;;
62574;SDS011;53112;45.602;11.904;2022-07-29T03:46:58;2.65;;;2.20;;
62574;SDS011;53112;45.602;11.904;2022-07-29T03:49:27;2.67;;;2.33;;
62574;SDS011;53112;45.602;11.904;2022-07-29T03:51:54;5.38;;;2.55;;
62574;SDS011;53112;45.602;11.904;2022-07-29T03:54:21;3.88;;;2.40;;
62574;SDS011;53112;45.602;11.904;2022-07-29T03:56:48;4.18;;;2.50;;
62574;SDS011;53112;45.602;11.904;2022-07-29T03:59:17;4.57;;;2.40;;
62574;SDS011;53112;45.602;11.904;2022-07-29T04:01:45;2.67;;;2.20;;
62574;SDS011;53112;45.602;11.904;2022-07-29T04:04:12;3.80;;;2.40;;
62574;SDS011;53112;45.602;11.904;2022-07-29T04:06:41;3.13;;;2.28;;
62574;SDS011;53112;45.602;11.904;2022-07-29T04:09:10;3.97;;;2.30;;
62574;SDS011;53112;45.602;11.904;2022-07-29T04:11:38;4.15;;;2.50;;
62574;SDS011;53112;45.602;11.904;2022-07-29T04:14:05;5.03;;;2.80;;
62574;SDS011;53112;45.602;11.904;2022-07-29T04:16:31;6.53;;;3.05;;
62574;SDS011;53112;45.602;11.904;2022-07-29T04:18:57;5.43;;;2.90;;
62574;SDS011;53112;45.602;11.904;2022-07-29T04:21:24;5.45;;;2.92;;
62574;SDS011;53112;45.602;11.904;2022-07-29T04:23:50;6.75;;;3.10;;
62574;SDS011;53112;45.602;11.904;2022-07-29T04:26:16;6.80;;;3.30;;
62574;SDS011;53112;45.602;11.904;2022-07-29T04:28:43;4.95;;;2.80;;
62574;SDS011;53112;45.602;11.904;2022-07-29T04:31:10;4.57;;;3.30;;
62574;SDS011;53112;45.602;11.904;2022-07-29T04:33:37;5.53;;;3.20;;
62574;SDS011;53112;45.602;11.904;2022-07-29T04:36:04;7.75;;;3.35;;
62574;SDS011;53112;45.602;11.904;2022-07-29T04:38:30;4.55;;;3.10;;
62574;SDS011;53112;45.602;11.904;2022-07-29T04:40:56;4.32;;;3.10;;
62574;SDS011;53112;45.602;11.904;2022-07-29T04:43:22;3.88;;;2.90;;
62574;SDS011;53112;45.602;11.904;2022-07-29T04:45:48;5.43;;;3.50;;
62574;SDS011;53112;45.602;11.904;2022-07-29T04:48:14;5.18;;;3.00;;
62574;SDS011;53112;45.602;11.904;2022-07-29T04:50:40;3.67;;;2.88;;
62574;SDS011;53112;45.602;11.904;2022-07-29T04:53:06;4.03;;;3.00;;
62574;SDS011;53112;45.602;11.904;2022-07-29T04:55:32;4.10;;;3.30;;
62574;SDS011;53112;45.602;11.904;2022-07-29T04:57:58;5.10;;;3.10;;
62574;SDS011;53112;45.602;11.904;2022-07-29T05:00:25;5.85;;;3.35;;
62574;SDS011;53112;45.602;11.904;2022-07-29T05:02:51;6.20;;;3.70;;
62574;SDS011;53112;45.602;11.904;2022-07-29T05:05:17;7.22;;;3.97;;
62574;SDS011;53112;45.602;11.904;2022-07-29T05:07:43;5.35;;;3.75;;
62574;SDS011;53112;45.602;11.904;2022-07-29T05:10:09;5.15;;;3.70;;
62574;SDS011;53112;45.602;11.904;2022-07-29T05:12:35;6.97;;;4.05;;
62574;SDS011;53112;45.602;11.904;2022-07-29T05:15:01;8.05;;;4.50;;
62574;SDS011;53112;45.602;11.904;2022-07-29T05:17:27;6.05;;;4.10;;
62574;SDS011;53112;45.602;11.904;2022-07-29T05:19:53;9.30;;;4.60;;
62574;SDS011;53112;45.602;11.904;2022-07-29T05:22:19;7.28;;;4.55;;
62574;SDS011;53112;45.602;11.904;2022-07-29T05:24:45;7.15;;;4.55;;
62574;SDS011;53112;45.602;11.904;2022-07-29T05:27:12;7.38;;;4.68;;
62574;SDS011;53112;45.602;11.904;2022-07-29T05:29:38;6.95;;;4.65;;
62574;SDS011;53112;45.602;11.904;2022-07-29T05:32:04;5.60;;;4.35;;
62574;SDS011;53112;45.602;11.904;2022-07-29T05:34:30;6.60;;;4.68;;
62574;SDS011;53112;45.602;11.904;2022-07-29T05:36:57;7.00;;;4.95;;
62574;SDS011;53112;45.602;11.904;2022-07-29T05:39:23;7.22;;;4.70;;
62574;SDS011;53112;45.602;11.904;2022-07-29T05:41:49;6.43;;;4.63;;
62574;SDS011;53112;45.602;11.904;2022-07-29T05:44:15;7.30;;;4.72;;
62574;SDS011;53112;45.602;11.904;2022-07-29T05:46:41;8.63;;;5.22;;
62574;SDS011;53112;45.602;11.904;2022-07-29T05:49:07;7.60;;;4.90;;
62574;SDS011;53112;45.602;11.904;2022-07-29T05:51:33;6.13;;;4.63;;
62574;SDS011;53112;45.602;11.904;2022-07-29T05:53:59;8.63;;;5.10;;
62574;SDS011;53112;45.602;11.904;2022-07-29T05:56:25;6.45;;;4.72;;
62574;SDS011;53112;45.602;11.904;2022-07-29T05:58:51;6.95;;;4.60;;
62574;SDS011;53112;45.602;11.904;2022-07-29T06:01:17;6.90;;;5.00;;
62574;SDS011;53112;45.602;11.904;2022-07-29T06:03:43;6.78;;;4.68;;
62574;SDS011;53112;45.602;11.904;2022-07-29T06:06:10;6.15;;;4.50;;
62574;SDS011;53112;45.602;11.904;2022-07-29T06:08:36;6.78;;;4.50;;
62574;SDS011;53112;45.602;11.904;2022-07-29T06:11:03;6.93;;;4.80;;
62574;SDS011;53112;45.602;11.904;2022-07-29T06:13:30;5.85;;;4.43;;
62574;SDS011;53112;45.602;11.904;2022-07-29T06:15:56;5.28;;;4.10;;
62574;SDS011;53112;45.602;11.904;2022-07-29T06:18:22;6.68;;;4.38;;
62574;SDS011;53112;45.602;11.904;2022-07-29T06:20:49;7.88;;;4.50;;
62574;SDS011;53112;45.602;11.904;2022-07-29T06:23:16;7.55;;;4.80;;
62574;SDS011;53112;45.602;11.904;2022-07-29T06:25:43;6.10;;;4.70;;
62574;SDS011;53112;45.602;11.904;2022-07-29T06:28:09;7.32;;;4.53;;
62574;SDS011;53112;45.602;11.904;2022-07-29T06:30:35;5.35;;;4.10;;
62574;SDS011;53112;45.602;11.904;2022-07-29T06:33:01;4.93;;;4.03;;
62574;SDS011;53112;45.602;11.904;2022-07-29T06:35:27;6.13;;;3.78;;
62574;SDS011;53112;45.602;11.904;2022-07-29T06:37:53;6.18;;;3.97;;
62574;SDS011;53112;45.602;11.904;2022-07-29T06:40:19;8.27;;;4.13;;
62574;SDS011;53112;45.602;11.904;2022-07-29T06:43:04;4.63;;;3.60;;
62574;SDS011;53112;45.602;11.904;2022-07-29T06:45:30;5.85;;;3.88;;
62574;SDS011;53112;45.602;11.904;2022-07-29T06:47:59;4.75;;;3.67;;
62574;SDS011;53112;45.602;11.904;2022-07-29T06:50:25;4.55;;;3.58;;
62574;SDS011;53112;45.602;11.904;2022-07-29T06:52:51;5.35;;;3.80;;
62574;SDS011;53112;45.602;11.904;2022-07-29T06:55:17;5.78;;;3.47;;
62574;SDS011;53112;45.602;11.904;2022-07-29T06:57:45;6.65;;;3.83;;
62574;SDS011;53112;45.602;11.904;2022-07-29T07:00:12;5.78;;;3.60;;
62574;SDS011;53112;45.602;11.904;2022-07-29T07:02:38;4.22;;;3.30;;
62574;SDS011;53112;45.602;11.904;2022-07-29T07:05:04;6.20;;;3.78;;
62574;SDS011;53112;45.602;11.904;2022-07-29T07:07:31;8.02;;;6.10;;
62574;SDS011;53112;45.602;11.904;2022-07-29T07:09:57;5.95;;;4.40;;
62574;SDS011;53112;45.602;11.904;2022-07-29T07:12:23;5.43;;;3.90;;
62574;SDS011;53112;45.602;11.904;2022-07-29T07:14:48;5.72;;;3.72;;
62574;SDS011;53112;45.602;11.904;2022-07-29T07:17:14;4.57;;;3.45;;
62574;SDS011;53112;45.602;11.904;2022-07-29T07:19:40;5.88;;;3.40;;
62574;SDS011;53112;45.602;11.904;2022-07-29T07:22:06;4.55;;;3.40;;
62574;SDS011;53112;45.602;11.904;2022-07-29T07:24:32;4.55;;;3.38;;
62574;SDS011;53112;45.602;11.904;2022-07-29T07:26:58;5.30;;;3.50;;
62574;SDS011;53112;45.602;11.904;2022-07-29T07:29:24;7.20;;;3.70;;
62574;SDS011;53112;45.602;11.904;2022-07-29T07:31:50;7.22;;;3.55;;
62574;SDS011;53112;45.602;11.904;2022-07-29T07:34:16;5.95;;;3.90;;
62574;SDS011;53112;45.602;11.904;2022-07-29T07:36:42;5.15;;;3.60;;
62574;SDS011;53112;45.602;11.904;2022-07-29T07:39:07;4.68;;;3.60;;
62574;SDS011;53112;45.602;11.904;2022-07-29T07:41:33;8.20;;;3.63;;
62574;SDS011;53112;45.602;11.904;2022-07-29T07:43:59;4.75;;;3.30;;
62574;SDS011;53112;45.602;11.904;2022-07-29T07:46:25;4.63;;;3.40;;
62574;SDS011;53112;45.602;11.904;2022-07-29T07:48:51;4.55;;;3.30;;
62574;SDS011;53112;45.602;11.904;2022-07-29T07:51:17;5.07;;;3.28;;
62574;SDS011;53112;45.602;11.904;2022-07-29T07:53:43;6.78;;;3.42;;
62574;SDS011;53112;45.602;11.904;2022-07-29T07:56:10;4.63;;;3.42;;
62574;SDS011;53112;45.602;11.904;2022-07-29T07:58:35;6.03;;;3.38;;
62574;SDS011;53112;45.602;11.904;2022-07-29T08:01:02;5.15;;;3.20;;
62574;SDS011;53112;45.602;11.904;2022-07-29T08:03:28;4.32;;;3.17;;
62574;SDS011;53112;45.602;11.904;2022-07-29T08:05:54;5.47;;;3.40;;
62574;SDS011;53112;45.602;11.904;2022-07-29T08:08:20;5.07;;;3.15;;
62574;SDS011;53112;45.602;11.904;2022-07-29T08:10:46;5.07;;;3.40;;
62574;SDS011;53112;45.602;11.904;2022-07-29T08:13:18;5.00;;;3.20;;
62574;SDS011;53112;45.602;11.904;2022-07-29T08:15:46;4.45;;;3.13;;
62574;SDS011;53112;45.602;11.904;2022-07-29T08:18:22;5.53;;;3.35;;
62574;SDS011;53112;45.602;11.904;2022-07-29T08:20:50;4.45;;;3.20;;
62574;SDS011;53112;45.602;11.904;2022-07-29T08:23:16;4.18;;;3.30;;
62574;SDS011;53112;45.602;11.904;2022-07-29T08:25:44;5.70;;;3.30;;
62574;SDS011;53112;45.602;11.904;2022-07-29T08:28:10;6.30;;;3.80;;
62574;SDS011;53112;45.602;11.904;2022-07-29T08:30:36;4.15;;;3.38;;
62574;SDS011;53112;45.602;11.904;2022-07-29T08:33:02;4.75;;;3.30;;
62574;SDS011;53112;45.602;11.904;2022-07-29T08:35:28;4.65;;;3.38;;
62574;SDS011;53112;45.602;11.904;2022-07-29T08:37:54;4.65;;;3.40;;
62574;SDS011;53112;45.602;11.904;2022-07-29T08:40:20;4.95;;;3.28;;
62574;SDS011;53112;45.602;11.904;2022-07-29T08:42:49;4.90;;;3.30;;
62574;SDS011;53112;45.602;11.904;2022-07-29T08:45:15;4.68;;;3.20;;
62574;SDS011;53112;45.602;11.904;2022-07-29T08:47:41;4.45;;;3.03;;
62574;SDS011;53112;45.602;11.904;2022-07-29T08:50:10;5.07;;;3.50;;
62574;SDS011;53112;45.602;11.904;2022-07-29T08:52:37;4.65;;;3.20;;
62574;SDS011;53112;45.602;11.904;2022-07-29T08:55:05;5.50;;;3.33;;
62574;SDS011;53112;45.602;11.904;2022-07-29T08:57:33;4.63;;;3.08;;
62574;SDS011;53112;45.602;11.904;2022-07-29T09:00:02;5.95;;;3.10;;
62574;SDS011;53112;45.602;11.904;2022-07-29T09:02:33;7.50;;;3.10;;
62574;SDS011;53112;45.602;11.904;2022-07-29T09:05:05;4.95;;;3.00;;
62574;SDS011;53112;45.602;11.904;2022-07-29T09:07:32;6.95;;;3.33;;
62574;SDS011;53112;45.602;11.904;2022-07-29T09:09:59;6.30;;;3.08;;
62574;SDS011;53112;45.602;11.904;2022-07-29T09:12:26;3.20;;;2.75;;
62574;SDS011;53112;45.602;11.904;2022-07-29T09:14:54;5.50;;;3.17;;
62574;SDS011;53112;45.602;11.904;2022-07-29T09:17:38;3.67;;;2.90;;
62574;SDS011;53112;45.602;11.904;2022-07-29T09:20:14;5.13;;;3.05;;
62574;SDS011;53112;45.602;11.904;2022-07-29T09:22:46;3.28;;;2.90;;
62574;SDS011;53112;45.602;11.904;2022-07-29T09:25:35;3.90;;;3.00;;
62574;SDS011;53112;45.602;11.904;2022-07-29T09:28:08;4.93;;;3.00;;
62574;SDS011;53112;45.602;11.904;2022-07-29T09:30:36;4.05;;;2.80;;
62574;SDS011;53112;45.602;11.904;2022-07-29T09:33:20;3.45;;;3.00;;
62574;SDS011;53112;45.602;11.904;2022-07-29T09:35:58;3.67;;;3.00;;
62574;SDS011;53112;45.602;11.904;2022-07-29T09:38:27;3.50;;;2.90;;
62574;SDS011;53112;45.602;11.904;2022-07-29T09:40:57;5.32;;;3.22;;
62574;SDS011;53112;45.602;11.904;2022-07-29T09:43:24;4.00;;;2.90;;
62574;SDS011;53112;45.602;11.904;2022-07-29T09:45:51;5.40;;;2.90;;
62574;SDS011;53112;45.602;11.904;2022-07-29T09:48:18;3.85;;;2.88;;
62574;SDS011;53112;45.602;11.904;2022-07-29T09:50:48;3.10;;;2.70;;
62574;SDS011;53112;45.602;11.904;2022-07-29T09:56:01;5.20;;;2.88;;
62574;SDS011;53112;45.602;11.904;2022-07-29T09:58:28;6.13;;;3.00;;
62574;SDS011;53112;45.602;11.904;2022-07-29T10:00:56;3.63;;;2.60;;
62574;SDS011;53112;45.602;11.904;2022-07-29T10:03:22;3.72;;;2.63;;
62574;SDS011;53112;45.602;11.904;2022-07-29T10:06:08;3.97;;;2.90;;
62574;SDS011;53112;45.602;11.904;2022-07-29T10:08:35;6.05;;;3.17;;
62574;SDS011;53112;45.602;11.904;2022-07-29T10:11:09;5.55;;;3.35;;
62574;SDS011;53112;45.602;11.904;2022-07-29T10:13:36;5.07;;;3.15;;
62574;SDS011;53112;45.602;11.904;2022-07-29T10:16:01;4.30;;;2.70;;
62574;SDS011;53112;45.602;11.904;2022-07-29T10:18:28;4.72;;;3.17;;
62574;SDS011;53112;45.602;11.904;2022-07-29T10:20:55;4.15;;;3.00;;
62574;SDS011;53112;45.602;11.904;2022-07-29T10:23:22;4.60;;;3.10;;
62574;SDS011;53112;45.602;11.904;2022-07-29T10:25:49;5.55;;;2.65;;
62574;SDS011;53112;45.602;11.904;2022-07-29T10:28:15;5.03;;;3.25;;
62574;SDS011;53112;45.602;11.904;2022-07-29T10:30:41;4.65;;;3.00;;
62574;SDS011;53112;45.602;11.904;2022-07-29T10:43:54;4.85;;;2.80;;
62574;SDS011;53112;45.602;11.904;2022-07-29T10:46:44;4.22;;;2.67;;
62574;SDS011;53112;45.602;11.904;2022-07-29T10:49:17;4.88;;;2.92;;
62574;SDS011;53112;45.602;11.904;2022-07-29T11:05:05;4.95;;;2.60;;
62574;SDS011;53112;45.602;11.904;2022-07-29T11:07:34;3.40;;;2.53;;
62574;SDS011;53112;45.602;11.904;2022-07-29T11:15:08;4.03;;;2.50;;
62574;SDS011;53112;45.602;11.904;2022-07-29T11:25:46;3.33;;;2.63;;
62574;SDS011;53112;45.602;11.904;2022-07-29T11:29:19;3.03;;;2.72;;
62574;SDS011;53112;45.602;11.904;2022-07-29T11:31:48;3.13;;;2.60;;
62574;SDS011;53112;45.602;11.904;2022-07-29T11:34:29;2.60;;;2.22;;
62574;SDS011;53112;45.602;11.904;2022-07-29T11:47:33;3.17;;;2.30;;
62574;SDS011;53112;45.602;11.904;2022-07-29T11:50:03;4.80;;;2.60;;
62574;SDS011;53112;45.602;11.904;2022-07-29T11:52:37;3.92;;;2.38;;
62574;SDS011;53112;45.602;11.904;2022-07-29T11:55:09;3.45;;;2.20;;
62574;SDS011;53112;45.602;11.904;2022-07-29T11:57:38;4.35;;;2.17;;
62574;SDS011;53112;45.602;11.904;2022-07-29T12:00:22;3.72;;;2.55;;
62574;SDS011;53112;45.602;11.904;2022-07-29T12:02:50;3.70;;;2.47;;
62574;SDS011;53112;45.602;11.904;2022-07-29T12:05:16;4.05;;;2.25;;
62574;SDS011;53112;45.602;11.904;2022-07-29T12:07:43;2.60;;;2.40;;
62574;SDS011;53112;45.602;11.904;2022-07-29T12:10:09;4.32;;;2.55;;
62574;SDS011;53112;45.602;11.904;2022-07-29T12:12:35;4.13;;;2.50;;
62574;SDS011;53112;45.602;11.904;2022-07-29T12:15:15;3.15;;;2.30;;
62574;SDS011;53112;45.602;11.904;2022-07-29T12:17:45;3.85;;;2.42;;
62574;SDS011;53112;45.602;11.904;2022-07-29T12:20:13;4.53;;;2.30;;
62574;SDS011;53112;45.602;11.904;2022-07-29T12:22:52;2.83;;;2.17;;
62574;SDS011;53112;45.602;11.904;2022-07-29T12:25:19;2.78;;;2.25;;
62574;SDS011;53112;45.602;11.904;2022-07-29T12:27:47;3.08;;;2.25;;
62574;SDS011;53112;45.602;11.904;2022-07-29T12:30:33;3.95;;;2.35;;
62574;SDS011;53112;45.602;11.904;2022-07-29T12:35:44;2.83;;;2.10;;
62574;SDS011;53112;45.602;11.904;2022-07-29T12:38:12;3.33;;;2.13;;
62574;SDS011;53112;45.602;11.904;2022-07-29T12:40:39;3.10;;;2.10;;
62574;SDS011;53112;45.602;11.904;2022-07-29T12:45:39;2.28;;;2.00;;
62574;SDS011;53112;45.602;11.904;2022-07-29T12:48:08;3.30;;;2.20;;
62574;SDS011;53112;45.602;11.904;2022-07-29T12:50:57;5.15;;;2.30;;
62574;SDS011;53112;45.602;11.904;2022-07-29T12:53:23;2.70;;;2.00;;
62574;SDS011;53112;45.602;11.904;2022-07-29T12:55:49;3.80;;;2.10;;
62574;SDS011;53112;45.602;11.904;2022-07-29T13:01:09;3.10;;;2.20;;
62574;SDS011;53112;45.602;11.904;2022-07-29T13:03:47;3.00;;;2.10;;
62574;SDS011;53112;45.602;11.904;2022-07-29T13:06:31;3.10;;;2.05;;
62574;SDS011;53112;45.602;11.904;2022-07-29T13:09:00;4.45;;;2.10;;
62574;SDS011;53112;45.602;11.904;2022-07-29T13:11:41;2.10;;;1.90;;
62574;SDS011;53112;45.602;11.904;2022-07-29T13:14:14;2.85;;;2.10;;
62574;SDS011;53112;45.602;11.904;2022-07-29T13:17:07;3.23;;;2.20;;
62574;SDS011;53112;45.602;11.904;2022-07-29T13:19:44;4.40;;;2.30;;
62574;SDS011;53112;45.602;11.904;2022-07-29T13:22:13;2.42;;;2.20;;
62574;SDS011;53112;45.602;11.904;2022-07-29T13:27:21;3.90;;;2.40;;
62574;SDS011;53112;45.602;11.904;2022-07-29T13:29:52;2.50;;;2.17;;
62574;SDS011;53112;45.602;11.904;2022-07-29T13:32:21;3.92;;;2.30;;
62574;SDS011;53112;45.602;11.904;2022-07-29T13:34:48;3.40;;;2.00;;
62574;SDS011;53112;45.602;11.904;2022-07-29T13:37:14;2.30;;;2.10;;
62574;SDS011;53112;45.602;11.904;2022-07-29T13:39:42;3.72;;;2.20;;
62574;SDS011;53112;45.602;11.904;2022-07-29T13:42:08;3.28;;;2.15;;
62574;SDS011;53112;45.602;11.904;2022-07-29T13:44:34;3.13;;;2.20;;
62574;SDS011;53112;45.602;11.904;2022-07-29T13:47:01;4.32;;;2.40;;
62574;SDS011;53112;45.602;11.904;2022-07-29T13:49:27;2.55;;;2.08;;
62574;SDS011;53112;45.602;11.904;2022-07-29T13:51:53;2.90;;;2.13;;
62574;SDS011;53112;45.602;11.904;2022-07-29T13:54:19;5.43;;;2.30;;
62574;SDS011;53112;45.602;11.904;2022-07-29T13:56:45;3.28;;;2.05;;
62574;SDS011;53112;45.602;11.904;2022-07-29T13:59:12;5.40;;;2.20;;
62574;SDS011;53112;45.602;11.904;2022-07-29T14:01:38;3.13;;;2.20;;
62574;SDS011;53112;45.602;11.904;2022-07-29T14:04:07;3.00;;;2.10;;
62574;SDS011;53112;45.602;11.904;2022-07-29T14:06:37;2.28;;;2.08;;
62574;SDS011;53112;45.602;11.904;2022-07-29T14:09:03;3.30;;;2.10;;
62574;SDS011;53112;45.602;11.904;2022-07-29T14:11:34;2.70;;;2.30;;
62574;SDS011;53112;45.602;11.904;2022-07-29T14:14:00;4.30;;;2.20;;
62574;SDS011;53112;45.602;11.904;2022-07-29T14:16:26;2.33;;;2.13;;
62574;SDS011;53112;45.602;11.904;2022-07-29T14:18:52;3.00;;;2.13;;
62574;SDS011;53112;45.602;11.904;2022-07-29T14:21:18;5.38;;;3.00;;
62574;SDS011;53112;45.602;11.904;2022-07-29T14:23:44;4.05;;;2.17;;
62574;SDS011;53112;45.602;11.904;2022-07-29T14:26:10;4.10;;;2.40;;
62574;SDS011;53112;45.602;11.904;2022-07-29T14:28:36;3.60;;;2.17;;
62574;SDS011;53112;45.602;11.904;2022-07-29T14:31:02;3.35;;;2.20;;
62574;SDS011;53112;45.602;11.904;2022-07-29T14:33:28;3.15;;;2.47;;
62574;SDS011;53112;45.602;11.904;2022-07-29T14:35:54;2.72;;;2.20;;
62574;SDS011;53112;45.602;11.904;2022-07-29T14:38:20;3.15;;;2.28;;
62574;SDS011;53112;45.602;11.904;2022-07-29T14:40:46;3.55;;;2.35;;
62574;SDS011;53112;45.602;11.904;2022-07-29T14:43:12;2.40;;;2.20;;
62574;SDS011;53112;45.602;11.904;2022-07-29T14:45:39;2.55;;;2.33;;
62574;SDS011;53112;45.602;11.904;2022-07-29T14:48:05;3.22;;;2.20;;
62574;SDS011;53112;45.602;11.904;2022-07-29T14:50:32;5.97;;;2.55;;
62574;SDS011;53112;45.602;11.904;2022-07-29T14:52:58;4.82;;;2.40;;
62574;SDS011;53112;45.602;11.904;2022-07-29T14:55:25;2.92;;;2.40;;
62574;SDS011;53112;45.602;11.904;2022-07-29T14:57:51;2.30;;;2.10;;
62574;SDS011;53112;45.602;11.904;2022-07-29T15:00:17;3.47;;;2.53;;
62574;SDS011;53112;45.602;11.904;2022-07-29T15:02:44;2.45;;;2.25;;
62574;SDS011;53112;45.602;11.904;2022-07-29T15:05:10;3.20;;;2.30;;
62574;SDS011;53112;45.602;11.904;2022-07-29T15:07:36;3.13;;;2.42;;
62574;SDS011;53112;45.602;11.904;2022-07-29T15:10:03;5.05;;;2.65;;
62574;SDS011;53112;45.602;11.904;2022-07-29T15:12:29;3.20;;;2.40;;
62574;SDS011;53112;45.602;11.904;2022-07-29T15:14:56;7.18;;;3.00;;
62574;SDS011;53112;45.602;11.904;2022-07-29T15:17:22;3.58;;;2.70;;
62574;SDS011;53112;45.602;11.904;2022-07-29T15:19:48;4.80;;;2.85;;
62574;SDS011;53112;45.602;11.904;2022-07-29T15:22:14;6.18;;;2.83;;
62574;SDS011;53112;45.602;11.904;2022-07-29T15:24:40;4.13;;;2.58;;
62574;SDS011;53112;45.602;11.904;2022-07-29T15:27:06;4.05;;;2.83;;
62574;SDS011;53112;45.602;11.904;2022-07-29T15:29:32;5.22;;;2.80;;
62574;SDS011;53112;45.602;11.904;2022-07-29T15:31:58;6.15;;;2.97;;
62574;SDS011;53112;45.602;11.904;2022-07-29T15:34:24;6.93;;;3.10;;
62574;SDS011;53112;45.602;11.904;2022-07-29T15:36:50;4.25;;;3.00;;
62574;SDS011;53112;45.602;11.904;2022-07-29T15:39:17;4.80;;;2.85;;
62574;SDS011;53112;45.602;11.904;2022-07-29T15:41:43;4.65;;;3.10;;
62574;SDS011;53112;45.602;11.904;2022-07-29T15:44:09;4.53;;;3.08;;
62574;SDS011;53112;45.602;11.904;2022-07-29T15:46:35;6.07;;;3.10;;
62574;SDS011;53112;45.602;11.904;2022-07-29T15:49:24;4.97;;;3.60;;
62574;SDS011;53112;45.602;11.904;2022-07-29T15:51:57;3.72;;;2.90;;
62574;SDS011;53112;45.602;11.904;2022-07-29T15:54:28;5.32;;;3.20;;
62574;SDS011;53112;45.602;11.904;2022-07-29T15:56:55;4.90;;;3.10;;
62574;SDS011;53112;45.602;11.904;2022-07-29T15:59:21;4.32;;;3.03;;
62574;SDS011;53112;45.602;11.904;2022-07-29T16:01:47;4.70;;;3.10;;